Main page
METAR-TAF:

METAR-TAF

Airports :

King Fahd International Airport

Dammam, Saudi Arabia

latitude: 26-28N, longitude: 049-47E, elevation: 22 m

Current weather observation

The report was made 53 minutes ago, at 22:00 UTC
Calm wind
Temperature 31°C
Humidity 40%
Pressure 995 hPa
Visibility 10 km or more
no clouds below 1500 m and no cumulonimbus

METAR: OEDF 052200Z 00000KT CAVOK 31/16 Q0995 NOSIG

Time: 01:53 (22:53 UTC)

Forecast

The report was made 8 hours and 53 minutes ago, at 14:00 UTC
Forecast valid from 05 at 18 UTC to 06 at 24 UTC
Wind 3 kt from variable directions
Visibility 10 km or more
no clouds below 1500 m and no cumulonimbus
Becoming
from 06 at 00 UTC to 06 at 02 UTC
Wind 8 kt from the West/Northwest
Becoming
from 06 at 06 UTC to 06 at 08 UTC
Wind 18 kt from the North
Visibility: 7000 m
Temporary
from 06 at 08 UTC to 06 at 12 UTC
Visibility: 5000 m
Blowing dust

TAF: OEDF 051400Z 0518/0624 VRB03KT CAVOK BECMG 0600/0602 30008KT BECMG 0606/0608 36018KT 7000 NSC TEMPO 0608/0612 5000 BLDU

Weather observations and forecasts of more than 4000 airports (METAR and TAF reports).

The available stations are represented by yellow and red dots on the map.

Hover mouse over dot to see the name of the station.

Then click to see weather observations and forecasts.

To change the map : click on the green buttons with a black cross to zoom in, on the green button with a dash to zoom out, or on the green arrows for adjacent maps.


METAR-TAF: